sensor_id;sensor_type;location;lat;lon;timestamp;P1;durP1;ratioP1;P2;durP2;ratioP2
16826;SDS011;8530;49.540;8.576;2023-02-01T00:01:45;7.60;;;6.83;;
16826;SDS011;8530;49.540;8.576;2023-02-01T00:04:12;8.10;;;5.70;;
16826;SDS011;8530;49.540;8.576;2023-02-01T00:06:39;8.50;;;6.70;;
16826;SDS011;8530;49.540;8.576;2023-02-01T00:09:06;8.67;;;5.37;;
16826;SDS011;8530;49.540;8.576;2023-02-01T00:11:32;8.00;;;5.77;;
16826;SDS011;8530;49.540;8.576;2023-02-01T00:14:00;5.93;;;5.30;;
16826;SDS011;8530;49.540;8.576;2023-02-01T00:16:28;7.97;;;6.00;;
16826;SDS011;8530;49.540;8.576;2023-02-01T00:18:56;6.93;;;6.07;;
16826;SDS011;8530;49.540;8.576;2023-02-01T00:21:24;10.33;;;6.20;;
16826;SDS011;8530;49.540;8.576;2023-02-01T00:23:51;7.20;;;5.80;;
16826;SDS011;8530;49.540;8.576;2023-02-01T00:26:19;6.97;;;6.27;;
16826;SDS011;8530;49.540;8.576;2023-02-01T00:28:48;5.50;;;4.97;;
16826;SDS011;8530;49.540;8.576;2023-02-01T00:31:16;6.80;;;6.10;;
16826;SDS011;8530;49.540;8.576;2023-02-01T00:33:43;8.30;;;4.80;;
16826;SDS011;8530;49.540;8.576;2023-02-01T00:36:13;7.00;;;6.30;;
16826;SDS011;8530;49.540;8.576;2023-02-01T00:38:40;6.77;;;5.17;;
16826;SDS011;8530;49.540;8.576;2023-02-01T00:41:08;7.57;;;5.83;;
16826;SDS011;8530;49.540;8.576;2023-02-01T00:43:37;5.67;;;5.17;;
16826;SDS011;8530;49.540;8.576;2023-02-01T00:46:04;8.17;;;6.03;;
16826;SDS011;8530;49.540;8.576;2023-02-01T00:48:32;6.87;;;5.80;;
16826;SDS011;8530;49.540;8.576;2023-02-01T00:50:59;7.63;;;6.17;;
16826;SDS011;8530;49.540;8.576;2023-02-01T00:53:26;6.27;;;5.63;;
16826;SDS011;8530;49.540;8.576;2023-02-01T00:55:53;8.50;;;5.57;;
16826;SDS011;8530;49.540;8.576;2023-02-01T00:58:21;5.73;;;5.23;;
16826;SDS011;8530;49.540;8.576;2023-02-01T01:00:49;5.97;;;5.40;;
16826;SDS011;8530;49.540;8.576;2023-02-01T01:03:15;5.50;;;5.00;;
16826;SDS011;8530;49.540;8.576;2023-02-01T01:05:46;8.20;;;4.80;;
16826;SDS011;8530;49.540;8.576;2023-02-01T01:08:14;9.47;;;5.50;;
16826;SDS011;8530;49.540;8.576;2023-02-01T01:10:42;6.40;;;5.30;;
16826;SDS011;8530;49.540;8.576;2023-02-01T01:13:09;9.07;;;5.50;;
16826;SDS011;8530;49.540;8.576;2023-02-01T01:15:36;7.10;;;6.10;;
16826;SDS011;8530;49.540;8.576;2023-02-01T01:18:03;7.90;;;5.93;;
16826;SDS011;8530;49.540;8.576;2023-02-01T01:20:30;8.70;;;6.43;;
16826;SDS011;8530;49.540;8.576;2023-02-01T01:22:58;6.10;;;5.50;;
16826;SDS011;8530;49.540;8.576;2023-02-01T01:25:25;7.73;;;5.50;;
16826;SDS011;8530;49.540;8.576;2023-02-01T01:27:51;5.67;;;5.17;;
16826;SDS011;8530;49.540;8.576;2023-02-01T01:30:18;5.77;;;5.27;;
16826;SDS011;8530;49.540;8.576;2023-02-01T01:32:45;8.17;;;6.23;;
16826;SDS011;8530;49.540;8.576;2023-02-01T01:35:12;7.23;;;5.40;;
16826;SDS011;8530;49.540;8.576;2023-02-01T01:37:38;5.90;;;5.33;;
16826;SDS011;8530;49.540;8.576;2023-02-01T01:40:07;6.80;;;5.57;;
16826;SDS011;8530;49.540;8.576;2023-02-01T01:42:36;7.33;;;5.63;;
16826;SDS011;8530;49.540;8.576;2023-02-01T01:45:04;6.57;;;5.83;;
16826;SDS011;8530;49.540;8.576;2023-02-01T01:47:33;11.93;;;5.20;;
16826;SDS011;8530;49.540;8.576;2023-02-01T01:50:03;8.13;;;5.17;;
16826;SDS011;8530;49.540;8.576;2023-02-01T01:52:34;5.87;;;5.27;;
16826;SDS011;8530;49.540;8.576;2023-02-01T01:55:03;6.67;;;6.07;;
16826;SDS011;8530;49.540;8.576;2023-02-01T01:57:32;5.53;;;5.03;;
16826;SDS011;8530;49.540;8.576;2023-02-01T02:00:03;8.37;;;5.97;;
16826;SDS011;8530;49.540;8.576;2023-02-01T02:02:33;5.70;;;5.20;;
16826;SDS011;8530;49.540;8.576;2023-02-01T02:05:02;5.57;;;5.07;;
16826;SDS011;8530;49.540;8.576;2023-02-01T02:07:30;6.40;;;5.00;;
16826;SDS011;8530;49.540;8.576;2023-02-01T02:10:01;5.17;;;4.67;;
16826;SDS011;8530;49.540;8.576;2023-02-01T02:12:32;6.63;;;5.80;;
16826;SDS011;8530;49.540;8.576;2023-02-01T02:14:59;5.70;;;5.10;;
16826;SDS011;8530;49.540;8.576;2023-02-01T02:17:29;8.10;;;5.07;;
16826;SDS011;8530;49.540;8.576;2023-02-01T02:23:13;6.93;;;4.43;;
16826;SDS011;8530;49.540;8.576;2023-02-01T02:29:18;7.57;;;6.07;;
16826;SDS011;8530;49.540;8.576;2023-02-01T02:35:26;7.73;;;5.70;;
16826;SDS011;8530;49.540;8.576;2023-02-01T02:37:58;8.33;;;5.50;;
16826;SDS011;8530;49.540;8.576;2023-02-01T02:40:32;5.87;;;5.20;;
16826;SDS011;8530;49.540;8.576;2023-02-01T02:43:04;8.00;;;5.53;;
16826;SDS011;8530;49.540;8.576;2023-02-01T02:45:54;7.07;;;5.73;;
16826;SDS011;8530;49.540;8.576;2023-02-01T02:48:44;8.57;;;5.50;;
16826;SDS011;8530;49.540;8.576;2023-02-01T02:51:20;5.83;;;5.23;;
16826;SDS011;8530;49.540;8.576;2023-02-01T02:54:10;7.00;;;5.30;;
16826;SDS011;8530;49.540;8.576;2023-02-01T02:56:57;7.27;;;5.43;;
16826;SDS011;8530;49.540;8.576;2023-02-01T02:59:45;8.73;;;5.77;;
16826;SDS011;8530;49.540;8.576;2023-02-01T03:02:31;5.67;;;4.97;;
16826;SDS011;8530;49.540;8.576;2023-02-01T03:05:17;6.17;;;5.17;;
16826;SDS011;8530;49.540;8.576;2023-02-01T03:07:54;7.53;;;5.70;;
16826;SDS011;8530;49.540;8.576;2023-02-01T03:10:30;11.00;;;6.33;;
16826;SDS011;8530;49.540;8.576;2023-02-01T03:13:05;9.10;;;5.77;;
16826;SDS011;8530;49.540;8.576;2023-02-01T03:15:38;9.67;;;5.70;;
16826;SDS011;8530;49.540;8.576;2023-02-01T03:18:11;6.37;;;5.70;;
16826;SDS011;8530;49.540;8.576;2023-02-01T03:20:42;5.83;;;5.30;;
16826;SDS011;8530;49.540;8.576;2023-02-01T03:23:13;8.50;;;5.47;;
16826;SDS011;8530;49.540;8.576;2023-02-01T03:25:43;7.43;;;6.37;;
16826;SDS011;8530;49.540;8.576;2023-02-01T03:28:10;7.33;;;5.87;;
16826;SDS011;8530;49.540;8.576;2023-02-01T03:30:38;7.20;;;6.10;;
16826;SDS011;8530;49.540;8.576;2023-02-01T03:33:09;8.73;;;5.77;;
16826;SDS011;8530;49.540;8.576;2023-02-01T03:35:48;8.47;;;6.03;;
16826;SDS011;8530;49.540;8.576;2023-02-01T03:38:22;6.40;;;5.77;;
16826;SDS011;8530;49.540;8.576;2023-02-01T03:40:54;6.80;;;5.10;;
16826;SDS011;8530;49.540;8.576;2023-02-01T03:43:24;8.60;;;6.13;;
16826;SDS011;8530;49.540;8.576;2023-02-01T03:45:57;6.27;;;5.60;;
16826;SDS011;8530;49.540;8.576;2023-02-01T03:48:29;9.50;;;6.30;;
16826;SDS011;8530;49.540;8.576;2023-02-01T03:50:56;8.80;;;5.80;;
16826;SDS011;8530;49.540;8.576;2023-02-01T03:53:28;6.47;;;5.30;;
16826;SDS011;8530;49.540;8.576;2023-02-01T03:55:56;5.80;;;5.30;;
16826;SDS011;8530;49.540;8.576;2023-02-01T03:58:23;8.50;;;6.33;;
16826;SDS011;8530;49.540;8.576;2023-02-01T04:00:51;6.23;;;5.63;;
16826;SDS011;8530;49.540;8.576;2023-02-01T04:03:19;10.27;;;7.20;;
16826;SDS011;8530;49.540;8.576;2023-02-01T04:05:47;5.50;;;4.90;;
16826;SDS011;8530;49.540;8.576;2023-02-01T04:08:14;8.13;;;5.20;;
16826;SDS011;8530;49.540;8.576;2023-02-01T04:10:42;9.93;;;6.83;;
16826;SDS011;8530;49.540;8.576;2023-02-01T04:13:09;5.70;;;5.10;;
16826;SDS011;8530;49.540;8.576;2023-02-01T04:15:36;6.63;;;4.90;;
16826;SDS011;8530;49.540;8.576;2023-02-01T04:18:03;6.97;;;6.37;;
16826;SDS011;8530;49.540;8.576;2023-02-01T04:20:30;10.00;;;5.53;;
16826;SDS011;8530;49.540;8.576;2023-02-01T04:22:56;9.57;;;6.53;;
16826;SDS011;8530;49.540;8.576;2023-02-01T04:25:23;12.30;;;5.90;;
16826;SDS011;8530;49.540;8.576;2023-02-01T04:27:51;7.93;;;5.77;;
16826;SDS011;8530;49.540;8.576;2023-02-01T04:30:18;6.17;;;5.20;;
16826;SDS011;8530;49.540;8.576;2023-02-01T04:32:45;12.50;;;7.20;;
16826;SDS011;8530;49.540;8.576;2023-02-01T04:35:11;16.93;;;7.40;;
16826;SDS011;8530;49.540;8.576;2023-02-01T04:37:38;10.60;;;6.60;;
16826;SDS011;8530;49.540;8.576;2023-02-01T04:40:06;6.40;;;5.47;;
16826;SDS011;8530;49.540;8.576;2023-02-01T04:42:33;5.70;;;5.10;;
16826;SDS011;8530;49.540;8.576;2023-02-01T04:45:01;8.27;;;6.03;;
16826;SDS011;8530;49.540;8.576;2023-02-01T04:47:28;9.20;;;5.83;;
16826;SDS011;8530;49.540;8.576;2023-02-01T04:49:55;6.10;;;5.27;;
16826;SDS011;8530;49.540;8.576;2023-02-01T04:52:21;10.70;;;6.30;;
16826;SDS011;8530;49.540;8.576;2023-02-01T04:54:48;7.20;;;5.40;;
16826;SDS011;8530;49.540;8.576;2023-02-01T04:57:15;8.20;;;5.47;;
16826;SDS011;8530;49.540;8.576;2023-02-01T04:59:42;9.00;;;5.70;;
16826;SDS011;8530;49.540;8.576;2023-02-01T05:02:10;8.53;;;6.37;;
16826;SDS011;8530;49.540;8.576;2023-02-01T05:04:36;9.37;;;6.40;;
16826;SDS011;8530;49.540;8.576;2023-02-01T05:07:03;7.43;;;6.10;;
16826;SDS011;8530;49.540;8.576;2023-02-01T05:09:30;10.10;;;7.13;;
16826;SDS011;8530;49.540;8.576;2023-02-01T05:11:57;9.67;;;8.67;;
16826;SDS011;8530;49.540;8.576;2023-02-01T05:14:49;18.00;;;10.47;;
16826;SDS011;8530;49.540;8.576;2023-02-01T05:17:17;11.70;;;10.30;;
16826;SDS011;8530;49.540;8.576;2023-02-01T05:19:44;12.20;;;8.87;;
16826;SDS011;8530;49.540;8.576;2023-02-01T05:22:11;11.30;;;9.13;;
16826;SDS011;8530;49.540;8.576;2023-02-01T05:24:37;13.27;;;10.37;;
16826;SDS011;8530;49.540;8.576;2023-02-01T05:27:04;16.93;;;9.93;;
16826;SDS011;8530;49.540;8.576;2023-02-01T05:29:31;13.77;;;9.57;;
16826;SDS011;8530;49.540;8.576;2023-02-01T05:31:58;10.03;;;8.40;;
16826;SDS011;8530;49.540;8.576;2023-02-01T05:34:26;12.37;;;8.83;;
16826;SDS011;8530;49.540;8.576;2023-02-01T05:36:53;16.63;;;9.93;;
16826;SDS011;8530;49.540;8.576;2023-02-01T05:39:20;10.87;;;8.67;;
16826;SDS011;8530;49.540;8.576;2023-02-01T05:41:47;11.43;;;8.80;;
16826;SDS011;8530;49.540;8.576;2023-02-01T05:44:14;12.03;;;8.97;;
16826;SDS011;8530;49.540;8.576;2023-02-01T05:46:41;16.23;;;9.57;;
16826;SDS011;8530;49.540;8.576;2023-02-01T05:49:08;13.47;;;9.90;;
16826;SDS011;8530;49.540;8.576;2023-02-01T05:51:36;14.53;;;9.90;;
16826;SDS011;8530;49.540;8.576;2023-02-01T05:54:03;18.67;;;10.27;;
16826;SDS011;8530;49.540;8.576;2023-02-01T05:56:29;15.87;;;9.13;;
16826;SDS011;8530;49.540;8.576;2023-02-01T05:58:56;18.23;;;9.97;;
16826;SDS011;8530;49.540;8.576;2023-02-01T06:01:23;17.10;;;9.10;;
16826;SDS011;8530;49.540;8.576;2023-02-01T06:03:49;18.60;;;10.10;;
16826;SDS011;8530;49.540;8.576;2023-02-01T06:06:16;12.97;;;8.67;;
16826;SDS011;8530;49.540;8.576;2023-02-01T06:08:45;9.60;;;8.20;;
16826;SDS011;8530;49.540;8.576;2023-02-01T06:11:12;11.50;;;7.23;;
16826;SDS011;8530;49.540;8.576;2023-02-01T06:13:39;16.13;;;7.37;;
16826;SDS011;8530;49.540;8.576;2023-02-01T06:16:06;16.73;;;8.80;;
16826;SDS011;8530;49.540;8.576;2023-02-01T06:18:33;10.27;;;9.20;;
16826;SDS011;8530;49.540;8.576;2023-02-01T06:20:59;17.17;;;10.33;;
16826;SDS011;8530;49.540;8.576;2023-02-01T06:23:26;11.43;;;8.43;;
16826;SDS011;8530;49.540;8.576;2023-02-01T06:25:59;12.43;;;6.63;;
16826;SDS011;8530;49.540;8.576;2023-02-01T06:28:27;9.37;;;7.90;;
16826;SDS011;8530;49.540;8.576;2023-02-01T06:30:54;12.43;;;7.67;;
16826;SDS011;8530;49.540;8.576;2023-02-01T06:33:22;7.63;;;6.30;;
16826;SDS011;8530;49.540;8.576;2023-02-01T06:35:55;8.93;;;7.27;;
16826;SDS011;8530;49.540;8.576;2023-02-01T06:38:23;18.30;;;9.53;;
16826;SDS011;8530;49.540;8.576;2023-02-01T06:40:51;11.83;;;9.33;;
16826;SDS011;8530;49.540;8.576;2023-02-01T06:43:20;11.60;;;8.20;;
16826;SDS011;8530;49.540;8.576;2023-02-01T06:45:46;13.10;;;9.90;;
16826;SDS011;8530;49.540;8.576;2023-02-01T06:48:13;8.90;;;8.00;;
16826;SDS011;8530;49.540;8.576;2023-02-01T06:50:40;15.83;;;7.37;;
16826;SDS011;8530;49.540;8.576;2023-02-01T06:53:06;15.30;;;6.87;;
16826;SDS011;8530;49.540;8.576;2023-02-01T06:55:33;9.70;;;8.50;;
16826;SDS011;8530;49.540;8.576;2023-02-01T06:58:00;10.00;;;7.30;;
16826;SDS011;8530;49.540;8.576;2023-02-01T07:00:28;8.77;;;6.70;;
16826;SDS011;8530;49.540;8.576;2023-02-01T07:02:57;12.67;;;6.73;;
16826;SDS011;8530;49.540;8.576;2023-02-01T07:05:23;13.80;;;7.03;;
16826;SDS011;8530;49.540;8.576;2023-02-01T07:07:50;13.07;;;7.30;;
16826;SDS011;8530;49.540;8.576;2023-02-01T07:10:17;13.00;;;6.67;;
16826;SDS011;8530;49.540;8.576;2023-02-01T07:12:44;11.20;;;6.60;;
16826;SDS011;8530;49.540;8.576;2023-02-01T07:15:11;10.77;;;8.20;;
16826;SDS011;8530;49.540;8.576;2023-02-01T07:17:39;13.30;;;6.30;;
16826;SDS011;8530;49.540;8.576;2023-02-01T07:20:06;22.97;;;9.97;;
16826;SDS011;8530;49.540;8.576;2023-02-01T07:22:34;11.07;;;7.90;;
16826;SDS011;8530;49.540;8.576;2023-02-01T07:25:01;24.40;;;11.30;;
16826;SDS011;8530;49.540;8.576;2023-02-01T07:27:28;25.20;;;12.33;;
16826;SDS011;8530;49.540;8.576;2023-02-01T07:29:54;25.33;;;15.27;;
16826;SDS011;8530;49.540;8.576;2023-02-01T07:32:21;24.17;;;12.03;;
16826;SDS011;8530;49.540;8.576;2023-02-01T07:34:49;21.93;;;12.63;;
16826;SDS011;8530;49.540;8.576;2023-02-01T07:37:16;28.63;;;11.70;;
16826;SDS011;8530;49.540;8.576;2023-02-01T07:39:43;23.10;;;12.10;;
16826;SDS011;8530;49.540;8.576;2023-02-01T07:42:10;30.00;;;12.10;;
16826;SDS011;8530;49.540;8.576;2023-02-01T07:44:37;18.67;;;10.10;;
16826;SDS011;8530;49.540;8.576;2023-02-01T07:47:04;23.30;;;8.90;;
16826;SDS011;8530;49.540;8.576;2023-02-01T07:49:30;16.13;;;9.10;;
16826;SDS011;8530;49.540;8.576;2023-02-01T07:51:58;18.77;;;11.77;;
16826;SDS011;8530;49.540;8.576;2023-02-01T07:54:25;19.50;;;9.10;;
16826;SDS011;8530;49.540;8.576;2023-02-01T07:56:52;16.30;;;9.00;;
16826;SDS011;8530;49.540;8.576;2023-02-01T07:59:18;23.53;;;12.80;;
16826;SDS011;8530;49.540;8.576;2023-02-01T08:01:45;16.10;;;11.63;;
16826;SDS011;8530;49.540;8.576;2023-02-01T08:04:11;18.63;;;9.00;;
16826;SDS011;8530;49.540;8.576;2023-02-01T08:06:39;21.07;;;9.20;;
16826;SDS011;8530;49.540;8.576;2023-02-01T08:09:07;12.27;;;7.50;;
16826;SDS011;8530;49.540;8.576;2023-02-01T08:11:35;12.40;;;6.57;;
16826;SDS011;8530;49.540;8.576;2023-02-01T08:14:02;13.50;;;6.47;;
16826;SDS011;8530;49.540;8.576;2023-02-01T08:16:29;15.67;;;7.03;;
16826;SDS011;8530;49.540;8.576;2023-02-01T08:18:56;11.00;;;7.37;;
16826;SDS011;8530;49.540;8.576;2023-02-01T08:21:24;18.57;;;6.67;;
16826;SDS011;8530;49.540;8.576;2023-02-01T08:24:01;17.50;;;6.40;;
16826;SDS011;8530;49.540;8.576;2023-02-01T08:26:30;14.63;;;7.00;;
16826;SDS011;8530;49.540;8.576;2023-02-01T08:28:57;12.43;;;7.37;;
16826;SDS011;8530;49.540;8.576;2023-02-01T08:31:27;13.03;;;6.50;;
16826;SDS011;8530;49.540;8.576;2023-02-01T08:33:55;15.90;;;6.63;;
16826;SDS011;8530;49.540;8.576;2023-02-01T08:36:25;11.87;;;5.40;;
16826;SDS011;8530;49.540;8.576;2023-02-01T08:38:52;15.63;;;6.17;;
16826;SDS011;8530;49.540;8.576;2023-02-01T08:41:20;24.57;;;7.47;;
16826;SDS011;8530;49.540;8.576;2023-02-01T08:43:50;11.90;;;6.20;;
16826;SDS011;8530;49.540;8.576;2023-02-01T08:46:17;23.33;;;8.63;;
16826;SDS011;8530;49.540;8.576;2023-02-01T08:48:45;10.30;;;7.00;;
16826;SDS011;8530;49.540;8.576;2023-02-01T08:51:12;20.37;;;10.53;;
16826;SDS011;8530;49.540;8.576;2023-02-01T08:53:40;13.47;;;7.97;;
16826;SDS011;8530;49.540;8.576;2023-02-01T08:56:08;11.87;;;8.10;;
16826;SDS011;8530;49.540;8.576;2023-02-01T08:58:35;17.53;;;8.43;;
16826;SDS011;8530;49.540;8.576;2023-02-01T09:01:04;12.57;;;7.23;;
16826;SDS011;8530;49.540;8.576;2023-02-01T09:03:31;23.03;;;7.63;;
16826;SDS011;8530;49.540;8.576;2023-02-01T09:06:01;12.13;;;7.33;;
16826;SDS011;8530;49.540;8.576;2023-02-01T09:08:29;19.20;;;8.97;;
16826;SDS011;8530;49.540;8.576;2023-02-01T09:10:59;14.83;;;6.80;;
16826;SDS011;8530;49.540;8.576;2023-02-01T09:13:26;12.20;;;6.13;;
16826;SDS011;8530;49.540;8.576;2023-02-01T09:15:53;22.67;;;8.90;;
16826;SDS011;8530;49.540;8.576;2023-02-01T09:18:21;14.00;;;6.00;;
16826;SDS011;8530;49.540;8.576;2023-02-01T09:20:48;15.23;;;6.17;;
16826;SDS011;8530;49.540;8.576;2023-02-01T09:23:15;14.13;;;6.37;;
16826;SDS011;8530;49.540;8.576;2023-02-01T09:25:41;14.30;;;7.90;;
16826;SDS011;8530;49.540;8.576;2023-02-01T09:28:09;14.07;;;7.27;;
16826;SDS011;8530;49.540;8.576;2023-02-01T09:30:36;15.33;;;8.10;;
16826;SDS011;8530;49.540;8.576;2023-02-01T09:33:03;21.90;;;7.03;;
16826;SDS011;8530;49.540;8.576;2023-02-01T09:35:32;24.97;;;9.60;;
16826;SDS011;8530;49.540;8.576;2023-02-01T09:37:58;17.47;;;6.80;;
16826;SDS011;8530;49.540;8.576;2023-02-01T09:40:25;38.47;;;9.20;;
16826;SDS011;8530;49.540;8.576;2023-02-01T09:42:59;11.43;;;4.80;;
16826;SDS011;8530;49.540;8.576;2023-02-01T09:45:41;14.53;;;5.27;;
16826;SDS011;8530;49.540;8.576;2023-02-01T09:48:14;10.30;;;5.00;;
16826;SDS011;8530;49.540;8.576;2023-02-01T09:50:45;11.60;;;4.97;;
16826;SDS011;8530;49.540;8.576;2023-02-01T09:53:17;15.23;;;5.00;;
16826;SDS011;8530;49.540;8.576;2023-02-01T09:55:51;12.60;;;4.80;;
16826;SDS011;8530;49.540;8.576;2023-02-01T09:58:22;16.00;;;6.07;;
16826;SDS011;8530;49.540;8.576;2023-02-01T10:00:54;14.30;;;5.87;;
16826;SDS011;8530;49.540;8.576;2023-02-01T10:03:23;10.93;;;7.00;;
16826;SDS011;8530;49.540;8.576;2023-02-01T10:06:01;10.93;;;5.10;;
16826;SDS011;8530;49.540;8.576;2023-02-01T10:08:51;8.70;;;5.57;;
16826;SDS011;8530;49.540;8.576;2023-02-01T10:11:36;11.80;;;5.30;;
16826;SDS011;8530;49.540;8.576;2023-02-01T10:14:17;16.67;;;5.27;;
16826;SDS011;8530;49.540;8.576;2023-02-01T10:17:00;8.10;;;5.20;;
16826;SDS011;8530;49.540;8.576;2023-02-01T10:19:38;13.80;;;4.30;;
16826;SDS011;8530;49.540;8.576;2023-02-01T10:22:16;19.20;;;5.00;;
16826;SDS011;8530;49.540;8.576;2023-02-01T10:24:50;20.60;;;4.30;;
16826;SDS011;8530;49.540;8.576;2023-02-01T10:27:25;10.87;;;4.70;;
16826;SDS011;8530;49.540;8.576;2023-02-01T10:29:59;15.03;;;6.90;;
16826;SDS011;8530;49.540;8.576;2023-02-01T10:32:30;16.63;;;5.60;;
16826;SDS011;8530;49.540;8.576;2023-02-01T10:35:00;14.50;;;5.13;;
16826;SDS011;8530;49.540;8.576;2023-02-01T10:37:31;16.27;;;5.40;;
16826;SDS011;8530;49.540;8.576;2023-02-01T10:39:59;15.30;;;5.30;;
16826;SDS011;8530;49.540;8.576;2023-02-01T10:42:30;18.87;;;4.60;;
16826;SDS011;8530;49.540;8.576;2023-02-01T10:44:58;19.23;;;5.10;;
16826;SDS011;8530;49.540;8.576;2023-02-01T10:47:28;13.93;;;4.63;;
16826;SDS011;8530;49.540;8.576;2023-02-01T10:49:56;9.93;;;5.43;;
16826;SDS011;8530;49.540;8.576;2023-02-01T10:52:33;20.33;;;6.10;;
16826;SDS011;8530;49.540;8.576;2023-02-01T10:57:59;16.30;;;4.70;;
16826;SDS011;8530;49.540;8.576;2023-02-01T11:00:27;22.77;;;4.67;;
16826;SDS011;8530;49.540;8.576;2023-02-01T11:02:54;13.43;;;4.10;;
16826;SDS011;8530;49.540;8.576;2023-02-01T11:05:21;14.03;;;4.67;;
16826;SDS011;8530;49.540;8.576;2023-02-01T11:07:51;6.83;;;4.13;;
16826;SDS011;8530;49.540;8.576;2023-02-01T11:10:34;13.50;;;5.60;;
16826;SDS011;8530;49.540;8.576;2023-02-01T11:13:02;13.60;;;3.70;;
16826;SDS011;8530;49.540;8.576;2023-02-01T11:15:29;18.43;;;5.17;;
16826;SDS011;8530;49.540;8.576;2023-02-01T11:17:56;20.50;;;6.20;;
16826;SDS011;8530;49.540;8.576;2023-02-01T11:20:40;11.40;;;4.57;;
16826;SDS011;8530;49.540;8.576;2023-02-01T11:23:12;15.60;;;5.10;;
16826;SDS011;8530;49.540;8.576;2023-02-01T11:25:47;13.97;;;5.30;;
16826;SDS011;8530;49.540;8.576;2023-02-01T11:28:15;11.33;;;5.33;;
16826;SDS011;8530;49.540;8.576;2023-02-01T11:30:43;7.50;;;3.73;;
16826;SDS011;8530;49.540;8.576;2023-02-01T11:33:13;12.93;;;4.20;;
16826;SDS011;8530;49.540;8.576;2023-02-01T11:35:43;14.03;;;5.03;;
16826;SDS011;8530;49.540;8.576;2023-02-01T11:38:15;8.83;;;3.93;;
16826;SDS011;8530;49.540;8.576;2023-02-01T11:40:46;6.67;;;3.60;;
16826;SDS011;8530;49.540;8.576;2023-02-01T11:43:15;23.93;;;5.40;;
16826;SDS011;8530;49.540;8.576;2023-02-01T11:45:55;6.60;;;4.10;;
16826;SDS011;8530;49.540;8.576;2023-02-01T11:48:24;11.63;;;4.47;;
16826;SDS011;8530;49.540;8.576;2023-02-01T11:50:55;14.57;;;4.17;;
16826;SDS011;8530;49.540;8.576;2023-02-01T11:53:35;14.30;;;3.80;;
16826;SDS011;8530;49.540;8.576;2023-02-01T11:56:11;7.97;;;4.10;;
16826;SDS011;8530;49.540;8.576;2023-02-01T11:58:56;9.93;;;3.50;;
16826;SDS011;8530;49.540;8.576;2023-02-01T12:01:46;8.77;;;4.17;;
16826;SDS011;8530;49.540;8.576;2023-02-01T12:04:39;11.13;;;4.90;;
16826;SDS011;8530;49.540;8.576;2023-02-01T12:07:17;11.50;;;4.40;;
16826;SDS011;8530;49.540;8.576;2023-02-01T12:09:55;11.50;;;3.20;;
16826;SDS011;8530;49.540;8.576;2023-02-01T12:12:31;15.03;;;3.63;;
16826;SDS011;8530;49.540;8.576;2023-02-01T12:17:57;9.03;;;4.20;;
16826;SDS011;8530;49.540;8.576;2023-02-01T12:23:31;14.63;;;4.50;;
16826;SDS011;8530;49.540;8.576;2023-02-01T12:29:08;8.27;;;4.23;;
16826;SDS011;8530;49.540;8.576;2023-02-01T12:31:50;19.17;;;6.73;;
16826;SDS011;8530;49.540;8.576;2023-02-01T12:34:42;11.80;;;3.43;;
16826;SDS011;8530;49.540;8.576;2023-02-01T12:37:31;15.93;;;4.97;;
16826;SDS011;8530;49.540;8.576;2023-02-01T12:40:23;11.00;;;4.60;;
16826;SDS011;8530;49.540;8.576;2023-02-01T12:42:59;11.83;;;4.07;;
16826;SDS011;8530;49.540;8.576;2023-02-01T12:45:30;12.27;;;4.47;;
16826;SDS011;8530;49.540;8.576;2023-02-01T12:48:02;14.03;;;5.43;;
16826;SDS011;8530;49.540;8.576;2023-02-01T12:50:50;14.10;;;4.13;;
16826;SDS011;8530;49.540;8.576;2023-02-01T12:53:22;18.40;;;5.70;;
16826;SDS011;8530;49.540;8.576;2023-02-01T12:55:53;26.13;;;6.27;;
16826;SDS011;8530;49.540;8.576;2023-02-01T12:58:24;13.50;;;5.03;;
16826;SDS011;8530;49.540;8.576;2023-02-01T13:00:55;17.03;;;5.03;;
16826;SDS011;8530;49.540;8.576;2023-02-01T13:03:28;15.90;;;4.57;;
16826;SDS011;8530;49.540;8.576;2023-02-01T13:06:05;21.97;;;6.67;;
16826;SDS011;8530;49.540;8.576;2023-02-01T13:08:38;12.50;;;4.20;;
16826;SDS011;8530;49.540;8.576;2023-02-01T13:11:10;10.00;;;4.87;;
16826;SDS011;8530;49.540;8.576;2023-02-01T13:13:46;13.50;;;5.30;;
16826;SDS011;8530;49.540;8.576;2023-02-01T13:16:21;14.33;;;5.63;;
16826;SDS011;8530;49.540;8.576;2023-02-01T13:18:54;20.90;;;5.40;;
16826;SDS011;8530;49.540;8.576;2023-02-01T13:21:27;20.03;;;8.70;;
16826;SDS011;8530;49.540;8.576;2023-02-01T13:23:59;13.87;;;5.70;;
16826;SDS011;8530;49.540;8.576;2023-02-01T13:26:25;22.87;;;4.90;;
16826;SDS011;8530;49.540;8.576;2023-02-01T13:28:55;13.47;;;5.00;;
16826;SDS011;8530;49.540;8.576;2023-02-01T13:34:37;15.67;;;5.07;;
16826;SDS011;8530;49.540;8.576;2023-02-01T13:37:53;12.77;;;4.80;;
16826;SDS011;8530;49.540;8.576;2023-02-01T13:40:40;14.87;;;5.63;;
16826;SDS011;8530;49.540;8.576;2023-02-01T13:43:11;13.73;;;4.77;;
16826;SDS011;8530;49.540;8.576;2023-02-01T13:45:44;10.23;;;4.73;;
16826;SDS011;8530;49.540;8.576;2023-02-01T13:48:21;15.63;;;6.33;;
16826;SDS011;8530;49.540;8.576;2023-02-01T13:50:53;20.67;;;6.20;;
16826;SDS011;8530;49.540;8.576;2023-02-01T13:53:25;15.47;;;4.83;;
16826;SDS011;8530;49.540;8.576;2023-02-01T13:55:56;17.83;;;4.70;;
16826;SDS011;8530;49.540;8.576;2023-02-01T13:58:31;20.77;;;8.00;;
16826;SDS011;8530;49.540;8.576;2023-02-01T14:04:02;11.20;;;5.10;;
16826;SDS011;8530;49.540;8.576;2023-02-01T14:06:41;18.03;;;7.13;;
16826;SDS011;8530;49.540;8.576;2023-02-01T14:09:12;17.73;;;6.57;;
16826;SDS011;8530;49.540;8.576;2023-02-01T14:11:45;8.53;;;4.30;;
16826;SDS011;8530;49.540;8.576;2023-02-01T14:23:21;15.07;;;4.40;;
16826;SDS011;8530;49.540;8.576;2023-02-01T14:26:04;12.60;;;4.30;;
16826;SDS011;8530;49.540;8.576;2023-02-01T14:28:33;22.63;;;8.83;;
16826;SDS011;8530;49.540;8.576;2023-02-01T14:31:13;20.90;;;9.07;;
16826;SDS011;8530;49.540;8.576;2023-02-01T14:33:44;22.13;;;7.70;;
16826;SDS011;8530;49.540;8.576;2023-02-01T14:36:12;14.33;;;5.97;;
16826;SDS011;8530;49.540;8.576;2023-02-01T14:38:46;16.07;;;6.20;;
16826;SDS011;8530;49.540;8.576;2023-02-01T14:44:23;28.43;;;9.03;;
16826;SDS011;8530;49.540;8.576;2023-02-01T14:47:04;19.73;;;6.67;;
16826;SDS011;8530;49.540;8.576;2023-02-01T14:49:36;11.70;;;4.03;;
16826;SDS011;8530;49.540;8.576;2023-02-01T14:52:09;10.17;;;5.27;;
16826;SDS011;8530;49.540;8.576;2023-02-01T14:54:40;14.87;;;6.60;;
16826;SDS011;8530;49.540;8.576;2023-02-01T14:57:13;13.77;;;6.70;;
16826;SDS011;8530;49.540;8.576;2023-02-01T14:59:43;29.33;;;5.40;;
16826;SDS011;8530;49.540;8.576;2023-02-01T15:02:17;11.00;;;6.20;;
16826;SDS011;8530;49.540;8.576;2023-02-01T15:04:53;12.10;;;6.40;;
16826;SDS011;8530;49.540;8.576;2023-02-01T15:07:21;11.90;;;6.07;;
16826;SDS011;8530;49.540;8.576;2023-02-01T15:09:49;19.87;;;6.67;;
16826;SDS011;8530;49.540;8.576;2023-02-01T15:12:22;9.60;;;4.47;;
16826;SDS011;8530;49.540;8.576;2023-02-01T15:15:12;19.57;;;6.07;;
16826;SDS011;8530;49.540;8.576;2023-02-01T15:17:41;17.07;;;6.17;;
16826;SDS011;8530;49.540;8.576;2023-02-01T15:20:14;15.83;;;5.10;;
16826;SDS011;8530;49.540;8.576;2023-02-01T15:22:42;7.03;;;3.60;;
16826;SDS011;8530;49.540;8.576;2023-02-01T15:25:18;9.60;;;3.80;;
16826;SDS011;8530;49.540;8.576;2023-02-01T15:27:46;13.63;;;3.60;;
16826;SDS011;8530;49.540;8.576;2023-02-01T15:30:16;20.73;;;4.60;;
16826;SDS011;8530;49.540;8.576;2023-02-01T15:32:44;7.97;;;3.60;;
16826;SDS011;8530;49.540;8.576;2023-02-01T15:38:18;6.37;;;3.50;;
16826;SDS011;8530;49.540;8.576;2023-02-01T15:40:57;19.33;;;3.93;;
16826;SDS011;8530;49.540;8.576;2023-02-01T15:43:26;11.60;;;3.67;;
16826;SDS011;8530;49.540;8.576;2023-02-01T15:45:55;9.67;;;2.70;;
16826;SDS011;8530;49.540;8.576;2023-02-01T15:48:24;16.10;;;4.10;;
16826;SDS011;8530;49.540;8.576;2023-02-01T15:50:54;16.00;;;4.77;;
16826;SDS011;8530;49.540;8.576;2023-02-01T15:53:22;9.30;;;3.87;;
16826;SDS011;8530;49.540;8.576;2023-02-01T15:55:55;11.20;;;5.13;;
16826;SDS011;8530;49.540;8.576;2023-02-01T15:58:24;8.63;;;3.80;;